Time;durP1;ratioP1;P1;durP2;ratioP2;P2;SDS_P1;SDS_P2;PMS_P1;PMS_P2;Temp;Humidity;BMP_temperature;BMP_pressure;BME280_temperature;BME280_humidity;BME280_pressure;Samples;Min_cycle;Max_cycle;Signal;HPM_P1;HPM_P2
2021/12/19 00:01:07;;;;;;;19.27;5.00;;;7.40;99.90;;;;;;4971578;28;20046;-81
2021/12/19 00:11:09;;;;;;;16.27;5.28;;;7.30;99.90;;;;;;4970660;28;20395;-81
2021/12/19 00:13:36;;;;;;;15.23;5.47;;;8.00;99.90;;;;;;4970351;28;20074;-81
2021/12/19 00:16:01;;;;;;;16.10;6.68;;;7.40;99.90;;;;;;4971649;28;20046;-81
2021/12/19 00:18:27;;;;;;;16.83;6.90;;;8.30;99.90;;;;;;4953226;28;20092;-81
2021/12/19 00:20:53;;;;;;;21.27;7.15;;;8.30;99.90;;;;;;4971501;28;20057;-81
2021/12/19 00:23:19;;;;;;;23.48;6.57;;;7.40;99.90;;;;;;4949294;28;20042;-81
2021/12/19 00:25:44;;;;;;;16.08;6.40;;;7.40;99.90;;;;;;4916306;29;20567;-81
2021/12/19 00:28:10;;;;;;;15.85;6.90;;;7.40;99.90;;;;;;4916860;29;20539;-81
2021/12/19 00:30:36;;;;;;;18.30;6.50;;;7.30;99.90;;;;;;4917047;29;20051;-80
2021/12/19 00:33:02;;;;;;;17.48;6.47;;;8.00;99.90;;;;;;4915428;29;20047;-81
2021/12/19 00:35:28;;;;;;;13.98;7.40;;;7.70;99.90;;;;;;4932468;29;20047;-81
2021/12/19 00:37:54;;;;;;;17.15;7.18;;;8.00;99.90;;;;;;4931942;29;20129;-81
2021/12/19 00:40:21;;;;;;;17.60;7.68;;;8.30;99.90;;;;;;4916378;29;20043;-81
2021/12/19 00:42:51;;;;;;;20.38;7.68;;;7.40;99.90;;;;;;4916187;29;20411;-81
2021/12/19 00:45:29;;;;;;;20.40;7.45;;;7.40;99.90;;;;;;4916934;29;20404;-81
2021/12/19 00:47:55;;;;;;;13.68;5.95;;;7.80;99.90;;;;;;4934901;29;20058;-81
2021/12/19 00:50:21;;;;;;;13.93;5.18;;;7.40;99.90;;;;;;4936322;29;20035;-81
2021/12/19 00:52:47;;;;;;;20.02;5.50;;;8.00;99.90;;;;;;4935977;29;20134;-82
2021/12/19 00:55:14;;;;;;;13.07;4.78;;;7.70;99.90;;;;;;4935582;28;20617;-81
2021/12/19 00:57:40;;;;;;;10.77;3.75;;;7.40;99.90;;;;;;4919833;29;20043;-81
2021/12/19 01:00:08;;;;;;;9.45;3.15;;;7.40;99.90;;;;;;4935560;28;20402;-81
2021/12/19 01:02:34;;;;;;;7.25;2.25;;;7.40;99.90;;;;;;4918305;29;20145;-81
2021/12/19 01:05:00;;;;;;;9.15;1.60;;;7.40;99.90;;;;;;4936237;29;20051;-81
2021/12/19 01:07:26;;;;;;;4.43;1.27;;;8.10;99.90;;;;;;4934887;29;20055;-81
2021/12/19 01:09:52;;;;;;;2.75;0.60;;;7.30;99.90;;;;;;4919284;29;20062;-81
2021/12/19 01:12:17;;;;;;;4.75;0.73;;;7.20;99.90;;;;;;4919647;29;20053;-81
2021/12/19 01:14:43;;;;;;;5.43;0.43;;;7.20;99.90;;;;;;4935273;29;20154;-81
2021/12/19 01:17:09;;;;;;;5.53;0.75;;;7.70;99.90;;;;;;4918668;29;20162;-82
2021/12/19 01:19:36;;;;;;;4.22;0.70;;;7.90;99.90;;;;;;4935343;29;20079;-82
2021/12/19 01:22:02;;;;;;;3.45;0.50;;;7.50;99.90;;;;;;4934563;29;20162;-81
2021/12/19 01:24:28;;;;;;;2.05;0.90;;;7.10;99.90;;;;;;4919522;29;20078;-81
2021/12/19 01:26:54;;;;;;;6.95;1.13;;;7.20;99.90;;;;;;4919756;29;20089;-81
2021/12/19 01:29:19;;;;;;;4.45;0.68;;;7.10;99.90;;;;;;4934687;28;20051;-81
2021/12/19 01:31:45;;;;;;;2.83;0.80;;;7.20;99.90;;;;;;4934749;29;20043;-82
2021/12/19 01:34:12;;;;;;;6.13;0.80;;;7.10;99.90;;;;;;4919146;29;20054;-82
2021/12/19 01:36:40;;;;;;;6.30;1.10;;;7.00;99.90;;;;;;4919172;29;20069;-81
2021/12/19 01:39:06;;;;;;;3.90;1.27;;;7.40;99.90;;;;;;4944700;28;20065;-81
2021/12/19 01:41:31;;;;;;;5.72;1.17;;;7.00;99.90;;;;;;4957395;28;20046;-81
2021/12/19 01:43:57;;;;;;;8.82;1.50;;;7.00;99.90;;;;;;4957031;28;20051;-82
2021/12/19 01:46:22;;;;;;;3.70;1.00;;;7.40;99.90;;;;;;4973416;28;20042;-82
2021/12/19 01:48:48;;;;;;;8.85;1.20;;;7.60;99.90;;;;;;4972535;28;20043;-81
2021/12/19 01:51:14;;;;;;;5.65;1.10;;;7.70;99.90;;;;;;4956537;28;20057;-82
2021/12/19 01:53:40;;;;;;;5.93;0.70;;;7.00;99.90;;;;;;4957132;28;20043;-82
2021/12/19 01:56:07;;;;;;;8.00;1.02;;;7.00;99.90;;;;;;4973883;28;20048;-82
2021/12/19 01:58:34;;;;;;;2.97;0.50;;;7.80;99.90;;;;;;4971696;28;20058;-82
2021/12/19 02:01:00;;;;;;;4.43;0.55;;;7.40;99.90;;;;;;4973764;28;20133;-82
2021/12/19 02:03:27;;;;;;;3.08;0.77;;;6.90;99.90;;;;;;4971963;28;20096;-81
2021/12/19 02:05:53;;;;;;;8.43;1.17;;;6.90;99.90;;;;;;4956302;28;20108;-81
2021/12/19 02:08:20;;;;;;;3.90;0.55;;;7.20;99.90;;;;;;4973095;28;20034;-81
2021/12/19 02:10:46;;;;;;;5.90;0.80;;;6.90;99.90;;;;;;4972469;28;20046;-81
2021/12/19 02:13:13;;;;;;;3.13;0.60;;;7.30;99.90;;;;;;4973284;28;20050;-81
2021/12/19 02:15:41;;;;;;;2.83;0.43;;;7.70;99.90;;;;;;4972743;28;20074;-81
2021/12/19 02:18:12;;;;;;;3.40;0.30;;;6.90;99.90;;;;;;4971879;28;20050;-82
2021/12/19 02:20:42;;;;;;;3.47;0.65;;;7.40;99.90;;;;;;4972677;28;20046;-82
2021/12/19 02:23:09;;;;;;;3.65;0.60;;;6.80;99.90;;;;;;4951551;28;20122;-81
2021/12/19 02:25:36;;;;;;;4.40;0.60;;;6.90;99.90;;;;;;4933297;29;20138;-81
2021/12/19 02:28:03;;;;;;;2.05;0.50;;;6.80;99.90;;;;;;4935013;29;20509;-81
2021/12/19 02:30:29;;;;;;;3.67;0.80;;;6.80;99.90;;;;;;4918028;29;20642;-82
2021/12/19 02:32:55;;;;;;;2.70;0.60;;;7.70;99.90;;;;;;4917518;29;20137;-82
2021/12/19 02:35:26;;;;;;;3.40;0.50;;;6.80;99.90;;;;;;4918429;29;20053;-82
2021/12/19 02:48:19;;;;;;;3.58;0.57;;;7.20;99.90;;;;;;4933437;29;20122;-81
2021/12/19 02:50:49;;;;;;;5.40;0.60;;;6.70;99.90;;;;;;4933957;29;20488;-82
2021/12/19 02:53:26;;;;;;;4.13;0.60;;;7.30;99.90;;;;;;4917498;29;20645;-82
2021/12/19 02:55:51;;;;;;;2.28;0.52;;;6.70;99.90;;;;;;4934188;29;20094;-81
2021/12/19 02:58:17;;;;;;;4.43;0.90;;;6.60;99.90;;;;;;4917291;28;20063;-82
2021/12/19 03:00:43;;;;;;;5.72;0.93;;;6.60;99.90;;;;;;4917490;29;20088;-82
2021/12/19 03:03:09;;;;;;;5.75;0.80;;;6.70;99.90;;;;;;4933506;29;20498;-82
2021/12/19 03:05:37;;;;;;;3.85;0.80;;;7.10;99.90;;;;;;4917881;29;20050;-82
2021/12/19 03:08:03;;;;;;;6.68;1.08;;;7.40;99.90;;;;;;4917399;28;20447;-82
2021/12/19 03:13:22;;;;;;;4.93;0.95;;;6.70;99.90;;;;;;4933810;29;20077;-82
2021/12/19 03:18:32;;;;;;;8.55;1.42;;;6.60;99.90;;;;;;4932458;29;20398;-82
2021/12/19 03:20:58;;;;;;;4.70;1.20;;;6.60;99.90;;;;;;4917818;29;20138;-82
2021/12/19 03:23:24;;;;;;;6.68;1.00;;;6.60;99.90;;;;;;4923902;28;20046;-82
2021/12/19 03:25:50;;;;;;;7.15;1.30;;;6.60;99.90;;;;;;4970401;28;20053;-82
2021/12/19 03:28:16;;;;;;;6.00;1.30;;;7.40;99.90;;;;;;4971603;28;20438;-83
2021/12/19 03:30:45;;;;;;;9.45;0.98;;;7.50;99.90;;;;;;4955873;28;20141;-83
2021/12/19 03:33:12;;;;;;;6.18;1.00;;;7.10;99.90;;;;;;4960535;28;20043;-82
2021/12/19 03:35:39;;;;;;;4.22;0.98;;;7.00;99.90;;;;;;4932234;28;20049;-83
2021/12/19 03:38:07;;;;;;;8.02;1.13;;;6.70;99.90;;;;;;4971292;28;20038;-82
2021/12/19 03:40:35;;;;;;;2.20;0.60;;;6.60;99.90;;;;;;4955636;28;20046;-81
2021/12/19 03:43:04;;;;;;;4.22;0.60;;;6.70;99.90;;;;;;4955188;28;20066;-83
2021/12/19 03:45:30;;;;;;;6.93;0.90;;;7.30;99.90;;;;;;4971526;28;20046;-82
2021/12/19 03:47:56;;;;;;;3.88;0.70;;;6.60;99.90;;;;;;4954001;28;20098;-82
2021/12/19 03:50:23;;;;;;;4.97;0.70;;;6.70;99.90;;;;;;4954913;28;20060;-83
2021/12/19 03:52:52;;;;;;;8.90;0.88;;;6.60;99.90;;;;;;4971156;28;20042;-82
2021/12/19 03:55:18;;;;;;;6.70;0.98;;;6.60;99.90;;;;;;4955936;28;20049;-82
2021/12/19 03:57:44;;;;;;;8.00;1.05;;;6.60;99.90;;;;;;4970672;28;20046;-82
2021/12/19 04:00:14;;;;;;;7.13;1.52;;;6.70;99.90;;;;;;4955756;28;20109;-83
2021/12/19 04:02:40;;;;;;;8.75;1.73;;;6.60;99.90;;;;;;4954853;28;20050;-82
2021/12/19 04:05:06;;;;;;;9.85;1.90;;;7.40;99.90;;;;;;4971107;28;20045;-83
2021/12/19 04:07:32;;;;;;;9.50;2.20;;;6.70;99.90;;;;;;4971481;28;20054;-82
2021/12/19 04:09:58;;;;;;;12.88;2.17;;;7.10;99.90;;;;;;4971864;28;20038;-83
2021/12/19 04:12:27;;;;;;;11.57;2.00;;;6.70;99.90;;;;;;4955044;28;20057;-82
2021/12/19 04:14:53;;;;;;;16.00;2.60;;;6.70;99.90;;;;;;4971799;28;20509;-82
2021/12/19 04:17:19;;;;;;;22.95;3.20;;;7.60;99.90;;;;;;4970328;28;20458;-81
2021/12/19 04:19:45;;;;;;;20.25;3.45;;;6.80;99.90;;;;;;4971671;28;20051;-81
2021/12/19 04:22:11;;;;;;;20.98;3.38;;;6.90;99.90;;;;;;4969489;28;20047;-81
2021/12/19 04:24:37;;;;;;;20.55;3.72;;;7.10;99.90;;;;;;4936909;29;20086;-82
2021/12/19 04:27:03;;;;;;;14.75;3.70;;;7.20;99.90;;;;;;4921263;29;20475;-82
2021/12/19 04:29:29;;;;;;;16.38;4.13;;;6.90;99.90;;;;;;4936884;29;20039;-81
2021/12/19 04:31:55;;;;;;;21.73;3.63;;;7.40;99.90;;;;;;4919567;29;20051;-81
2021/12/19 04:34:22;;;;;;;20.02;4.00;;;6.90;99.90;;;;;;4936598;29;20043;-81
2021/12/19 04:36:57;;;;;;;29.02;4.72;;;6.90;99.90;;;;;;4936774;29;20204;-82
2021/12/19 04:39:35;;;;;;;27.35;4.93;;;7.70;99.90;;;;;;4935948;29;20054;-82
2021/12/19 04:43:06;;;;;;;28.80;4.88;;;6.90;99.90;;;;;;4936052;29;20141;-82
2021/12/19 04:56:03;;;;;;;33.95;5.70;;;7.00;99.90;;;;;;4936350;29;20093;-82
2021/12/19 05:01:21;;;;;;;30.55;7.57;;;7.00;99.90;;;;;;4935239;29;20051;-83
2021/12/19 05:04:02;;;;;;;36.35;7.28;;;7.30;99.90;;;;;;4935484;29;20058;-83
2021/12/19 05:06:51;;;;;;;27.08;7.13;;;7.40;99.90;;;;;;4919827;29;20051;-83
2021/12/19 05:14:50;;;;;;;33.65;7.55;;;7.00;99.90;;;;;;4935202;29;20051;-82
2021/12/19 05:17:22;;;;;;;27.23;6.90;;;7.30;99.90;;;;;;4919324;29;20130;-82
2021/12/19 05:20:09;;;;;;;27.83;7.65;;;7.00;99.90;;;;;;4919557;29;20054;-83
2021/12/19 05:22:42;;;;;;;24.33;8.00;;;7.00;99.90;;;;;;4919399;28;20205;-83
2021/12/19 05:25:14;;;;;;;31.73;8.63;;;7.00;99.90;;;;;;4972962;28;20129;-82
2021/12/19 05:27:49;;;;;;;35.90;7.68;;;7.00;99.90;;;;;;4973806;28;20449;-83
2021/12/19 05:30:16;;;;;;;30.25;8.45;;;7.00;99.90;;;;;;4974277;28;20049;-83
2021/12/19 05:32:42;;;;;;;27.25;9.93;;;7.00;99.90;;;;;;4972577;28;20494;-83
2021/12/19 05:35:10;;;;;;;35.05;10.18;;;7.00;99.90;;;;;;4957516;28;20046;-83
2021/12/19 05:45:48;;;;;;;24.92;8.70;;;7.60;99.90;;;;;;4935310;29;20055;-83
2021/12/19 05:48:14;;;;;;;37.78;8.70;;;7.00;99.90;;;;;;4934501;29;20047;-82
2021/12/19 05:50:40;;;;;;;31.95;8.82;;;7.10;99.90;;;;;;4918753;29;20556;-83
2021/12/19 05:53:06;;;;;;;25.90;7.97;;;7.80;99.90;;;;;;4918995;29;20082;-82
2021/12/19 05:55:32;;;;;;;27.40;7.40;;;7.40;99.90;;;;;;4934942;29;20078;-83
2021/12/19 05:57:58;;;;;;;26.20;7.30;;;7.20;99.90;;;;;;4934728;28;20087;-83
2021/12/19 06:00:24;;;;;;;29.80;7.55;;;6.90;99.90;;;;;;4938275;28;20054;-83
2021/12/19 06:02:50;;;;;;;34.78;7.53;;;6.90;99.90;;;;;;4952748;28;20110;-83
2021/12/19 06:05:18;;;;;;;29.25;7.40;;;7.20;99.90;;;;;;4953347;28;20038;-82
2021/12/19 06:07:44;;;;;;;22.75;7.10;;;6.90;99.90;;;;;;4937658;28;20162;-83
2021/12/19 06:10:12;;;;;;;28.30;7.55;;;6.90;99.90;;;;;;4937576;28;20546;-82
2021/12/19 06:12:38;;;;;;;26.98;7.00;;;6.90;99.90;;;;;;4953615;28;20043;-83
2021/12/19 06:15:08;;;;;;;24.45;7.88;;;6.90;99.90;;;;;;4938306;28;20043;-82
2021/12/19 06:17:36;;;;;;;22.58;7.10;;;6.90;99.90;;;;;;4951977;28;20043;-82
2021/12/19 06:20:03;;;;;;;18.67;6.95;;;7.80;99.90;;;;;;4953986;28;20069;-83
2021/12/19 06:22:29;;;;;;;28.50;7.50;;;6.90;99.90;;;;;;4937452;28;20045;-83
2021/12/19 06:24:56;;;;;;;20.88;6.03;;;6.90;99.90;;;;;;4953395;28;20046;-83
2021/12/19 06:27:21;;;;;;;26.48;6.93;;;7.00;99.90;;;;;;4953268;28;20379;-83
2021/12/19 06:29:49;;;;;;;23.20;6.45;;;7.70;99.90;;;;;;4953499;28;20505;-83
2021/12/19 06:32:17;;;;;;;24.20;5.75;;;6.90;99.90;;;;;;4935751;28;20050;-83
2021/12/19 06:34:44;;;;;;;29.65;6.72;;;7.70;99.90;;;;;;4937641;28;20051;-83
2021/12/19 06:37:11;;;;;;;20.58;4.95;;;6.90;99.90;;;;;;4937058;28;20049;-83
2021/12/19 06:39:38;;;;;;;22.50;4.85;;;7.70;99.90;;;;;;4952916;28;20133;-82
2021/12/19 06:42:06;;;;;;;17.02;4.10;;;7.70;99.90;;;;;;4953397;28;20046;-82
2021/12/19 06:44:32;;;;;;;23.35;4.72;;;7.20;99.90;;;;;;4952511;28;20098;-83
2021/12/19 06:46:59;;;;;;;17.10;4.15;;;6.90;99.90;;;;;;4952086;28;20491;-83
2021/12/19 06:49:24;;;;;;;24.83;4.50;;;7.40;99.90;;;;;;4937243;28;20047;-82
2021/12/19 06:51:50;;;;;;;29.73;5.50;;;6.90;99.90;;;;;;4953198;28;20434;-83
2021/12/19 06:54:16;;;;;;;28.00;5.00;;;6.90;99.90;;;;;;4936338;28;20093;-83
2021/12/19 06:56:42;;;;;;;19.77;4.22;;;6.90;99.90;;;;;;4953251;28;20042;-82
2021/12/19 06:59:07;;;;;;;21.10;3.58;;;7.10;99.90;;;;;;4926300;29;20130;-83
2021/12/19 07:01:36;;;;;;;17.83;4.13;;;7.80;99.90;;;;;;4917367;29;20055;-83
2021/12/19 07:04:02;;;;;;;22.70;3.70;;;6.80;99.90;;;;;;4917100;29;20047;-83
2021/12/19 07:06:28;;;;;;;16.55;3.72;;;7.10;99.90;;;;;;4916736;29;20444;-83
2021/12/19 07:08:54;;;;;;;20.40;3.95;;;7.60;99.90;;;;;;4933990;29;20047;-82
2021/12/19 07:11:20;;;;;;;19.10;4.13;;;7.30;99.90;;;;;;4933729;29;20155;-83
2021/12/19 07:13:46;;;;;;;24.65;4.07;;;6.90;99.90;;;;;;4932634;29;20051;-83
2021/12/19 07:16:12;;;;;;;30.30;5.13;;;6.90;99.90;;;;;;4917765;29;20039;-83
2021/12/19 07:18:38;;;;;;;27.95;4.50;;;7.60;99.90;;;;;;4916676;29;20043;-83
2021/12/19 07:21:05;;;;;;;19.35;3.85;;;6.90;99.90;;;;;;4917249;29;20053;-83
2021/12/19 07:23:31;;;;;;;23.15;4.05;;;7.30;99.90;;;;;;4932651;29;20054;-83
2021/12/19 07:25:57;;;;;;;28.67;4.45;;;6.90;99.90;;;;;;4918176;29;20058;-83
2021/12/19 07:28:23;;;;;;;21.10;3.55;;;6.90;99.90;;;;;;4916885;29;20434;-83
2021/12/19 07:30:49;;;;;;;26.58;4.05;;;6.90;99.90;;;;;;4917238;29;20047;-82
2021/12/19 07:33:14;;;;;;;19.27;3.63;;;6.90;99.90;;;;;;4916658;29;20043;-83
2021/12/19 07:35:44;;;;;;;22.30;3.63;;;6.90;99.90;;;;;;4932477;29;20051;-82
2021/12/19 07:38:15;;;;;;;27.48;5.07;;;6.90;99.90;;;;;;4933184;29;20117;-83
2021/12/19 07:40:46;;;;;;;27.15;5.38;;;6.90;99.90;;;;;;4917374;29;20047;-84
2021/12/19 07:43:12;;;;;;;28.25;4.68;;;7.30;99.90;;;;;;4916646;29;20463;-83
2021/12/19 07:45:38;;;;;;;25.83;4.15;;;7.60;99.90;;;;;;4932787;29;20098;-82
2021/12/19 07:48:04;;;;;;;25.77;4.55;;;7.40;99.90;;;;;;4916553;29;20039;-83
2021/12/19 07:50:31;;;;;;;30.38;4.90;;;6.90;99.90;;;;;;4916358;29;20130;-82
2021/12/19 07:52:58;;;;;;;28.90;4.45;;;7.00;99.90;;;;;;4917668;29;20047;-82
2021/12/19 07:55:25;;;;;;;31.17;4.53;;;7.00;99.90;;;;;;4932774;29;20035;-82
2021/12/19 07:57:51;;;;;;;24.63;5.15;;;7.00;99.90;;;;;;4917029;29;20142;-82
2021/12/19 08:00:20;;;;;;;27.80;4.07;;;7.00;99.90;;;;;;4945964;28;20043;-81
2021/12/19 08:02:47;;;;;;;22.25;4.47;;;7.00;99.90;;;;;;4950117;28;20470;-82
2021/12/19 08:05:15;;;;;;;36.75;5.43;;;7.00;99.90;;;;;;4936248;28;20055;-82
2021/12/19 08:07:42;;;;;;;26.58;4.60;;;7.10;99.90;;;;;;4951699;28;20046;-84
2021/12/19 08:12:36;;;;;;;25.63;4.80;;;7.50;99.90;;;;;;4951443;28;20097;-83
2021/12/19 08:15:02;;;;;;;26.98;4.85;;;7.00;99.90;;;;;;4936560;28;20505;-82
2021/12/19 08:17:28;;;;;;;23.17;3.67;;;7.00;99.90;;;;;;4944809;28;20123;-84
2021/12/19 08:19:54;;;;;;;20.63;3.97;;;7.20;99.90;;;;;;4955459;28;20125;-84
2021/12/19 08:22:20;;;;;;;20.35;3.97;;;7.80;99.90;;;;;;4955343;28;20173;-83
2021/12/19 08:24:47;;;;;;;16.50;3.33;;;7.10;99.90;;;;;;4959612;28;20510;-83
2021/12/19 08:27:13;;;;;;;19.45;4.07;;;7.10;99.90;;;;;;4954098;28;20561;-83
2021/12/19 08:29:39;;;;;;;17.35;3.05;;;7.90;99.90;;;;;;4940027;28;20043;-84
2021/12/19 08:32:05;;;;;;;15.18;3.28;;;7.10;99.90;;;;;;4939264;28;20836;-84
2021/12/19 08:34:32;;;;;;;17.73;4.00;;;7.10;99.90;;;;;;4935456;28;20422;-83
2021/12/19 08:36:58;;;;;;;28.92;4.38;;;7.40;99.90;;;;;;4951595;28;20053;-83
2021/12/19 08:39:24;;;;;;;24.60;3.95;;;7.10;99.90;;;;;;4951484;28;20100;-83
2021/12/19 08:41:50;;;;;;;23.42;3.38;;;8.00;99.90;;;;;;4952040;28;20039;-83
2021/12/19 08:44:15;;;;;;;24.17;3.88;;;7.10;99.90;;;;;;4931368;28;20039;-83
2021/12/19 08:46:45;;;;;;;27.85;4.25;;;7.40;99.90;;;;;;4921508;28;20102;-83
2021/12/19 08:49:11;;;;;;;20.38;3.38;;;7.50;99.90;;;;;;4947465;28;20047;-83
2021/12/19 08:51:39;;;;;;;28.00;3.72;;;7.10;99.90;;;;;;4947938;28;20058;-83
2021/12/19 08:54:06;;;;;;;24.48;4.10;;;7.60;99.90;;;;;;4932411;28;20086;-83
2021/12/19 08:56:51;;;;;;;29.92;3.80;;;7.10;99.90;;;;;;4931598;28;20771;-84
2021/12/19 08:59:17;;;;;;;22.98;3.58;;;7.60;99.90;;;;;;4946569;28;20069;-83
2021/12/19 09:02:00;;;;;;;22.50;3.95;;;7.90;99.90;;;;;;4947717;28;20059;-83
2021/12/19 09:04:26;;;;;;;24.75;4.85;;;7.10;99.90;;;;;;4931476;28;20082;-83
2021/12/19 09:07:00;;;;;;;28.23;3.83;;;7.20;99.90;;;;;;4931943;28;20080;-83
2021/12/19 09:09:25;;;;;;;;;;;8.30;99.90;;;;;;4949363;28;20046;-84
2021/12/19 09:11:52;;;;;;;22.33;3.72;;;8.40;99.90;;;;;;4949635;28;20282;-84
2021/12/19 09:14:18;;;;;;;26.73;4.00;;;7.20;99.90;;;;;;4931079;28;20569;-84
2021/12/19 09:16:56;;;;;;;26.75;3.63;;;7.30;99.90;;;;;;4934304;28;20047;-84
2021/12/19 09:19:22;;;;;;;28.13;4.10;;;7.20;99.90;;;;;;4947635;28;20046;-85
2021/12/19 09:22:04;;;;;;;19.77;3.38;;;7.70;99.90;;;;;;4934864;28;20054;-84
2021/12/19 09:24:29;;;;;;;27.13;4.10;;;8.30;99.90;;;;;;4943572;28;20057;-84
2021/12/19 09:26:55;;;;;;;33.53;4.35;;;8.30;99.90;;;;;;4953369;28;20050;-85
2021/12/19 09:29:28;;;;;;;26.65;4.07;;;8.00;99.90;;;;;;4954827;28;20050;-85
2021/12/19 09:31:55;;;;;;;20.15;3.60;;;8.10;99.90;;;;;;4969591;28;20056;-84
2021/12/19 09:34:36;;;;;;;23.60;3.50;;;7.90;99.90;;;;;;4953495;28;20046;-85
2021/12/19 09:37:02;;;;;;;41.40;7.70;;;7.30;99.90;;;;;;4954447;28;20402;-85
2021/12/19 09:39:28;;;;;;;16.15;3.15;;;7.40;99.90;;;;;;4969380;28;20042;-83
2021/12/19 09:42:09;;;;;;;79.28;12.70;;;7.40;99.90;;;;;;4968202;28;20092;-84
2021/12/19 09:44:38;;;;;;;79.60;14.18;;;7.40;99.90;;;;;;4930982;28;20231;-84
2021/12/19 09:47:12;;;;;;;78.20;12.30;;;7.40;99.90;;;;;;4934362;28;20046;-84
2021/12/19 09:49:39;;;;;;;81.45;10.15;;;7.40;99.90;;;;;;4929056;28;20411;-83
2021/12/19 09:52:34;;;;;;;222.15;30.08;;;7.40;99.90;;;;;;4933771;28;20558;-83
2021/12/19 09:55:09;;;;;;;34.00;4.93;;;7.40;99.90;;;;;;4945100;28;20051;-83
2021/12/19 09:57:35;;;;;;;36.58;6.13;;;7.40;99.90;;;;;;4970352;23;20073;-83
2021/12/19 10:00:01;;;;;;;76.43;10.35;;;7.90;99.90;;;;;;5003672;28;20515;-83
2021/12/19 10:02:28;;;;;;;32.25;4.07;;;7.40;99.90;;;;;;4960346;28;20502;-84
2021/12/19 10:04:54;;;;;;;27.05;4.13;;;7.40;99.90;;;;;;4978266;28;20042;-85
2021/12/19 10:07:28;;;;;;;33.42;5.32;;;8.20;99.90;;;;;;4964726;28;20498;-85
2021/12/19 10:10:24;;;;;;;31.75;5.45;;;7.40;99.90;;;;;;4962679;28;20595;-84
2021/12/19 10:13:15;;;;;;;93.05;13.60;;;7.50;99.90;;;;;;4988939;28;20543;-85
2021/12/19 10:15:53;;;;;;;30.85;3.95;;;7.40;99.90;;;;;;4973126;28;20053;-85
2021/12/19 10:18:49;;;;;;;21.08;3.50;;;8.70;99.90;;;;;;4969638;28;20046;-85
2021/12/19 10:21:28;;;;;;;21.60;3.35;;;7.50;99.90;;;;;;4988893;28;20049;-85
2021/12/19 10:24:06;;;;;;;14.07;2.67;;;7.50;99.90;;;;;;4972039;28;20370;-85
2021/12/19 10:26:43;;;;;;;23.58;3.35;;;7.50;99.90;;;;;;4989369;28;20121;-85
2021/12/19 10:29:19;;;;;;;18.55;3.00;;;7.50;99.90;;;;;;4972740;28;20100;-84
2021/12/19 10:32:06;;;;;;;23.52;3.35;;;8.40;99.90;;;;;;4968246;28;20490;-84
2021/12/19 10:34:32;;;;;;;19.88;2.63;;;7.40;99.90;;;;;;4966680;28;20137;-85
2021/12/19 10:37:30;;;;;;;23.20;3.33;;;7.60;99.90;;;;;;4967252;28;20101;-84
2021/12/19 10:40:05;;;;;;;25.27;3.20;;;7.60;99.90;;;;;;4985459;28;20445;-84
2021/12/19 10:42:42;;;;;;;21.50;3.30;;;7.90;99.90;;;;;;4971344;28;20038;-83
2021/12/19 10:48:14;;;;;;;15.75;2.42;;;7.90;99.90;;;;;;4992712;28;20054;-83
2021/12/19 10:50:52;;;;;;;16.52;2.25;;;7.70;99.90;;;;;;4961612;28;20063;-84
2021/12/19 10:53:19;;;;;;;22.88;2.92;;;7.60;99.90;;;;;;4965609;28;20054;-82
2021/12/19 10:55:48;;;;;;;16.17;2.85;;;8.80;99.90;;;;;;4963919;28;20034;-81
2021/12/19 10:58:36;;;;;;;23.75;3.13;;;8.90;99.90;;;;;;4972362;28;20133;-81
2021/12/19 11:01:06;;;;;;;24.08;3.97;;;7.00;99.90;;;;;;4978112;28;20042;-81
2021/12/19 11:03:44;;;;;;;21.98;4.28;;;7.80;99.90;;;;;;4974842;28;20525;-82
2021/12/19 11:06:32;;;;;;;19.98;2.92;;;7.80;99.90;;;;;;4970561;28;20051;-82
2021/12/19 11:09:17;;;;;;;25.75;3.13;;;7.80;99.90;;;;;;4958735;28;20038;-83
2021/12/19 11:11:47;;;;;;;;;;;7.80;99.90;;;;;;4967798;28;20117;-82
2021/12/19 11:14:32;;;;;;;19.73;3.03;;;7.80;99.90;;;;;;4958461;28;19924;-83
2021/12/19 11:17:20;;;;;;;18.45;3.25;;;7.80;99.90;;;;;;4964198;28;20795;-83
2021/12/19 11:19:48;;;;;;;25.25;3.47;;;7.80;99.90;;;;;;4966846;28;20054;-84
2021/12/19 11:22:29;;;;;;;20.43;3.30;;;7.80;99.90;;;;;;4965370;28;20153;-83
2021/12/19 11:24:58;;;;;;;22.08;3.35;;;7.80;99.90;;;;;;4968107;28;20439;-83
2021/12/19 11:27:25;;;;;;;24.02;3.40;;;8.00;99.90;;;;;;4983652;28;20375;-84
2021/12/19 11:29:52;;;;;;;30.45;4.50;;;8.20;99.90;;;;;;4967614;28;20046;-83
2021/12/19 11:32:24;;;;;;;23.08;3.38;;;7.90;99.90;;;;;;4982683;28;20498;-82
2021/12/19 11:34:58;;;;;;;23.65;3.53;;;7.80;99.90;;;;;;4967130;28;20061;-83
2021/12/19 11:37:29;;;;;;;28.48;3.70;;;7.90;99.90;;;;;;4982861;28;20205;-82
2021/12/19 11:39:59;;;;;;;18.60;3.97;;;7.90;99.90;;;;;;4980576;28;20058;-82
2021/12/19 11:42:32;;;;;;;22.02;3.72;;;7.90;99.90;;;;;;4981635;28;20074;-82
2021/12/19 11:45:16;;;;;;;;;;;7.90;99.90;;;;;;4974646;28;20530;-82
2021/12/19 11:47:48;;;;;;;22.15;4.18;;;7.90;99.90;;;;;;4974893;28;19921;-82
2021/12/19 11:50:23;;;;;;;19.70;3.50;;;8.00;99.90;;;;;;4966868;28;20444;-81
2021/12/19 11:52:52;;;;;;;28.45;4.05;;;7.90;99.90;;;;;;4969693;28;20132;-81
2021/12/19 11:55:22;;;;;;;23.10;3.83;;;8.30;99.90;;;;;;4983265;28;20137;-81
2021/12/19 11:58:07;;;;;;;32.90;3.85;;;8.00;99.90;;;;;;4968793;28;20065;-80
2021/12/19 12:00:44;;;;;;;28.63;4.68;;;8.00;99.90;;;;;;4971615;28;20057;-81
2021/12/19 12:03:12;;;;;;;31.48;4.00;;;8.00;99.90;;;;;;4950754;28;20089;-81
2021/12/19 12:05:43;;;;;;;27.13;4.43;;;8.40;99.90;;;;;;4952007;28;20518;-81
2021/12/19 12:08:17;;;;;;;29.38;4.70;;;8.00;99.90;;;;;;4968225;28;20402;-82
2021/12/19 12:13:25;;;;;;;29.00;3.83;;;8.80;99.90;;;;;;4968402;28;20053;-81
2021/12/19 12:15:58;;;;;;;35.17;5.00;;;8.20;99.90;;;;;;4951915;28;20153;-81
2021/12/19 12:18:30;;;;;;;21.33;3.50;;;8.10;99.90;;;;;;4951289;28;20047;-81
2021/12/19 12:20:57;;;;;;;25.20;3.75;;;8.10;99.90;;;;;;5001381;28;20047;-81
2021/12/19 12:23:27;;;;;;;25.50;3.95;;;8.80;99.90;;;;;;4983259;28;20039;-81
2021/12/19 12:25:54;;;;;;;26.17;4.25;;;8.10;99.90;;;;;;4952328;28;20403;-81
2021/12/19 12:28:20;;;;;;;27.67;3.72;;;8.70;99.90;;;;;;5000342;28;20081;-81
2021/12/19 12:30:52;;;;;;;20.60;3.97;;;8.10;99.90;;;;;;4951796;28;20042;-81
2021/12/19 12:33:24;;;;;;;32.17;4.13;;;8.30;99.90;;;;;;4983187;28;20467;-82
2021/12/19 12:35:54;;;;;;;26.80;4.50;;;8.10;99.90;;;;;;4952016;28;20051;-82
2021/12/19 12:38:20;;;;;;;32.95;4.15;;;8.10;99.90;;;;;;4950638;28;20058;-81
2021/12/19 12:40:56;;;;;;;22.20;3.60;;;8.10;99.90;;;;;;4968141;28;20085;-81
2021/12/19 12:43:27;;;;;;;28.08;3.83;;;8.00;99.90;;;;;;4970677;28;20507;-82
2021/12/19 12:46:03;;;;;;;27.02;3.90;;;8.00;99.90;;;;;;4970661;28;20549;-81
2021/12/19 12:48:38;;;;;;;26.30;3.42;;;8.00;99.90;;;;;;4973122;28;20117;-85
2021/12/19 12:51:09;;;;;;;24.40;2.92;;;8.00;99.90;;;;;;4976255;28;20054;-88
2021/12/19 12:53:46;;;;;;;22.38;3.50;;;8.00;99.90;;;;;;4975843;28;20053;-83
2021/12/19 12:56:19;;;;;;;33.28;4.68;;;8.90;99.90;;;;;;4974542;28;20101;-82
2021/12/19 12:58:46;;;;;;;;;;;8.00;99.90;;;;;;4990105;28;20054;-82
2021/12/19 13:01:22;;;;;;;27.08;3.00;;;8.00;99.90;;;;;;4973774;28;19922;-83
2021/12/19 13:03:54;;;;;;;23.15;2.72;;;8.00;99.90;;;;;;4973366;28;20578;-82
2021/12/19 13:06:38;;;;;;;35.17;3.97;;;8.10;99.90;;;;;;4990111;28;20453;-82
2021/12/19 13:09:09;;;;;;;21.02;4.03;;;8.00;99.90;;;;;;4973711;28;20395;-83
2021/12/19 13:11:36;;;;;;;25.30;4.30;;;8.00;99.90;;;;;;4973686;28;20050;-83
2021/12/19 13:14:23;;;;;;;31.27;4.25;;;8.00;99.90;;;;;;4970522;28;20049;-82
2021/12/19 13:16:53;;;;;;;35.85;5.68;;;8.00;99.90;;;;;;4953757;28;20058;-83
2021/12/19 13:19:33;;;;;;;23.25;3.97;;;7.90;99.90;;;;;;4954134;28;20069;-82
2021/12/19 13:21:59;;;;;;;25.73;3.75;;;7.90;99.90;;;;;;4954850;28;20046;-82
2021/12/19 13:24:24;;;;;;;26.05;3.95;;;8.70;99.90;;;;;;4971196;28;20053;-82
2021/12/19 13:27:06;;;;;;;23.80;3.67;;;8.00;99.90;;;;;;4953851;28;20051;-82
2021/12/19 13:29:32;;;;;;;23.83;3.58;;;8.00;99.90;;;;;;4954463;28;20507;-82
2021/12/19 13:32:16;;;;;;;23.50;3.20;;;8.00;99.90;;;;;;4953992;28;20398;-83
2021/12/19 13:34:42;;;;;;;20.33;3.53;;;8.00;99.90;;;;;;4953961;28;20403;-82
2021/12/19 13:37:08;;;;;;;25.27;2.85;;;8.00;99.90;;;;;;4970870;28;20093;-82
2021/12/19 13:39:34;;;;;;;22.17;3.53;;;8.40;99.90;;;;;;4953877;28;20447;-81
2021/12/19 13:42:18;;;;;;;20.40;3.17;;;8.10;99.90;;;;;;4954068;28;20047;-82
2021/12/19 13:44:46;;;;;;;22.17;4.05;;;8.30;99.90;;;;;;4954341;28;20131;-82
2021/12/19 13:47:14;;;;;;;26.35;4.00;;;8.10;99.90;;;;;;4952369;28;20051;-82
2021/12/19 13:49:40;;;;;;;20.70;3.50;;;8.20;99.90;;;;;;4970723;28;20046;-82
2021/12/19 13:52:07;;;;;;;16.45;2.53;;;8.70;99.90;;;;;;4954128;28;20058;-82
2021/12/19 13:54:37;;;;;;;21.48;3.33;;;8.20;99.90;;;;;;4953147;28;20085;-81
2021/12/19 13:57:17;;;;;;;22.80;3.47;;;8.60;99.90;;;;;;4954089;28;20059;-82
2021/12/19 13:59:43;;;;;;;21.48;3.50;;;8.20;99.90;;;;;;4970186;28;20105;-82
2021/12/19 14:02:11;;;;;;;22.85;4.05;;;9.10;99.90;;;;;;4952802;28;20633;-82